createdAt,value
2019-04-20T00:00:59.884Z,53.26
2019-04-20T00:03:30.992Z,52.84
2019-04-20T00:05:59.310Z,53.41
2019-04-20T00:08:31.157Z,52.14
2019-04-20T00:11:07.262Z,52.96
2019-04-20T00:13:36.666Z,53.08
2019-04-20T00:15:57.799Z,53.52
2019-04-20T00:18:38.202Z,53.38
2019-04-20T00:21:03.828Z,52.90
2019-04-20T00:23:36.750Z,53.64
2019-04-20T00:26:33.341Z,54.54
2019-04-20T00:29:06.889Z,54.48
2019-04-20T00:31:39.244Z,54.29
2019-04-20T00:33:59.441Z,54.60
2019-04-20T00:36:20.184Z,55.63
2019-04-20T00:38:53.418Z,55.87
2019-04-20T00:41:19.462Z,55.54
2019-04-20T00:43:49.188Z,55.86
2019-04-20T00:46:24.963Z,57.12
2019-04-20T00:48:55.893Z,55.62
2019-04-20T00:51:35.171Z,56.16
2019-04-20T00:53:51.479Z,56.47
2019-04-20T00:56:18.241Z,56.53
2019-04-20T00:58:55.784Z,57.27
2019-04-20T01:01:37.466Z,57.12
2019-04-20T01:04:06.473Z,56.76
2019-04-20T01:06:52.522Z,55.36
2019-04-20T01:09:22.614Z,55.32
2019-04-20T01:11:52.887Z,56.13
2019-04-20T01:14:27.265Z,56.17
2019-04-20T01:16:59.941Z,57.21
2019-04-20T01:19:21.210Z,56.05
2019-04-20T01:21:57.866Z,56.11
2019-04-20T01:24:27.536Z,57.48
2019-04-20T01:26:55.081Z,57.12
2019-04-20T01:29:29.432Z,56.45
2019-04-20T01:32:02.383Z,57.76
2019-04-20T01:34:32.579Z,58.74
2019-04-20T01:37:04.420Z,57.44
2019-04-20T01:39:28.687Z,58.27
2019-04-20T01:41:49.682Z,57.83
2019-04-20T01:44:24.468Z,57.21
2019-04-20T01:46:54.858Z,57.32
2019-04-20T01:49:22.433Z,56.49
2019-04-20T01:51:57.740Z,56.66
2019-04-20T01:54:32.518Z,56.99
2019-04-20T01:56:59.242Z,56.81
2019-04-20T01:59:34.501Z,57.83
2019-04-20T02:02:16.099Z,57.40
2019-04-20T02:04:51.508Z,58.00
2019-04-20T02:07:25.563Z,58.17
2019-04-20T02:09:53.559Z,58.33
2019-04-20T02:12:25.353Z,58.26
2019-04-20T02:14:54.069Z,59.06
2019-04-20T02:17:28.888Z,58.55
2019-04-20T02:20:12.545Z,59.27
2019-04-20T02:22:40.811Z,57.71
2019-04-20T02:24:51.035Z,59.49
2019-04-20T02:27:26.908Z,59.07
2019-04-20T02:30:13.784Z,59.27
2019-04-20T02:32:55.571Z,59.81
2019-04-20T02:35:42.622Z,59.58
2019-04-20T02:38:10.466Z,60.38
2019-04-20T02:40:47.182Z,59.70
2019-04-20T02:45:39.933Z,59.98
2019-04-20T02:48:16.010Z,58.53
2019-04-20T02:53:15.622Z,59.99
2019-04-20T02:55:41.944Z,59.72
2019-04-20T02:58:13.306Z,60.66
2019-04-20T03:00:47.445Z,60.31
2019-04-20T03:02:53.122Z,61.16
2019-04-20T03:05:20.438Z,60.70
2019-04-20T03:08:01.148Z,61.09
2019-04-20T03:10:38.982Z,61.46
2019-04-20T03:13:02.821Z,62.03
2019-04-20T03:15:32.823Z,61.11
2019-04-20T03:18:03.419Z,61.59
2019-04-20T03:20:31.409Z,61.97
2019-04-20T03:23:17.651Z,61.23
2019-04-20T03:25:45.268Z,61.79
2019-04-20T03:28:12.578Z,61.49
2019-04-20T03:31:26.357Z,62.40
2019-04-20T03:33:44.179Z,62.04
2019-04-20T03:36:06.034Z,62.56
2019-04-20T03:38:19.839Z,61.81
2019-04-20T03:40:46.467Z,61.83
2019-04-20T03:43:02.691Z,62.15
2019-04-20T03:45:41.256Z,61.82
2019-04-20T03:48:12.344Z,62.45
2019-04-20T03:50:53.278Z,62.46
2019-04-20T03:53:22.686Z,61.39
2019-04-20T03:56:02.301Z,62.31
2019-04-20T03:58:33.512Z,62.41
2019-04-20T04:01:35.901Z,62.92
2019-04-20T04:04:10.532Z,63.64
2019-04-20T04:06:30.671Z,63.22
2019-04-20T04:09:08.930Z,63.13
2019-04-20T04:11:38.144Z,62.90
2019-04-20T04:13:54.625Z,63.09
2019-04-20T04:16:29.416Z,63.87
2019-04-20T04:19:07.784Z,63.54
2019-04-20T04:21:41.159Z,63.80
2019-04-20T04:24:09.475Z,63.47
2019-04-20T04:26:39.088Z,64.01
2019-04-20T04:29:27.153Z,63.73
2019-04-20T04:31:55.451Z,63.88
2019-04-20T04:34:17.412Z,64.17
2019-04-20T04:36:53.714Z,63.94
2019-04-20T04:39:28.840Z,63.54
2019-04-20T04:42:03.663Z,63.73
2019-04-20T04:44:19.275Z,63.62
2019-04-20T04:46:42.372Z,63.27
2019-04-20T04:49:14.958Z,65.11
2019-04-20T04:51:46.742Z,65.24
2019-04-20T04:54:16.542Z,65.61
2019-04-20T04:56:35.519Z,67.11
2019-04-20T04:59:04.367Z,68.48
2019-04-20T05:01:35.342Z,68.51
2019-04-20T05:04:22.777Z,66.84
2019-04-20T05:06:48.548Z,67.22
2019-04-20T05:09:08.071Z,67.92
2019-04-20T05:11:32.580Z,67.91
2019-04-20T05:14:06.666Z,68.45
2019-04-20T05:17:04.558Z,67.54
2019-04-20T05:19:23.520Z,67.01
2019-04-20T05:21:59.853Z,65.56
2019-04-20T05:24:22.677Z,66.36
2019-04-20T05:27:01.947Z,65.26
2019-04-20T05:29:14.512Z,65.33
2019-04-20T05:31:43.178Z,65.55
2019-04-20T05:34:30.832Z,66.04
2019-04-20T05:36:57.965Z,66.45
2019-04-20T05:39:32.387Z,67.13
2019-04-20T05:41:53.185Z,65.47
2019-04-20T05:44:23.754Z,67.33
2019-04-20T05:47:02.917Z,66.78
2019-04-20T05:49:28.456Z,66.61
2019-04-20T05:51:56.022Z,66.25
2019-04-20T05:54:32.561Z,66.41
2019-04-20T05:57:07.902Z,65.37
2019-04-20T05:59:28.362Z,65.34
2019-04-20T06:02:03.543Z,64.85
2019-04-20T06:04:44.556Z,65.90
2019-04-20T06:06:59.625Z,64.52
2019-04-20T06:09:47.917Z,64.61
2019-04-20T06:12:17.945Z,64.68
2019-04-20T06:14:31.530Z,63.69
2019-04-20T06:17:11.284Z,63.77
2019-04-20T06:19:42.169Z,63.58
2019-04-20T06:22:27.119Z,63.68
2019-04-20T06:25:23.499Z,64.01
2019-04-20T06:27:39.886Z,62.81
2019-04-20T06:30:00.899Z,62.12
2019-04-20T06:33:26.695Z,63.80
2019-04-20T06:36:01.251Z,62.30
2019-04-20T06:38:27.918Z,62.45
2019-04-20T06:40:54.150Z,61.51
2019-04-20T06:43:12.482Z,63.29
2019-04-20T06:45:51.216Z,63.37
2019-04-20T06:48:20.330Z,62.85
2019-04-20T06:50:39.099Z,61.84
2019-04-20T06:53:31.904Z,62.03
2019-04-20T06:55:57.736Z,61.89
2019-04-20T06:58:39.583Z,61.92
2019-04-20T07:01:13.679Z,61.90
2019-04-20T07:04:19.228Z,62.22
2019-04-20T07:06:30.787Z,61.46
2019-04-20T07:11:18.714Z,61.73
2019-04-20T07:13:36.145Z,61.25
2019-04-20T07:16:18.297Z,61.05
2019-04-20T07:19:09.172Z,60.43
2019-04-20T07:22:10.495Z,61.54
2019-04-20T07:24:46.071Z,60.39
2019-04-20T07:27:14.922Z,59.76
2019-04-20T07:29:47.048Z,60.77
2019-04-20T07:32:07.555Z,59.79
2019-04-20T07:34:46.986Z,57.24
2019-04-20T07:37:48.505Z,56.50
2019-04-20T07:39:48.276Z,57.54
2019-04-20T07:42:26.372Z,55.14
2019-04-20T07:44:53.143Z,55.94
2019-04-20T07:47:23.943Z,56.28
2019-04-20T07:49:48.351Z,56.83
2019-04-20T07:51:57.523Z,55.19
2019-04-20T07:55:06.106Z,55.19
2019-04-20T07:57:15.845Z,54.99
2019-04-20T07:59:43.035Z,54.42
2019-04-20T08:02:23.548Z,52.37
2019-04-20T08:04:47.370Z,53.12
2019-04-20T08:07:06.793Z,51.46
2019-04-20T08:09:42.029Z,49.55
2019-04-20T08:12:36.334Z,49.99
2019-04-20T08:15:04.938Z,46.62
2019-04-20T08:17:37.380Z,45.36
2019-04-20T08:20:00.112Z,45.67
2019-04-20T08:22:33.972Z,46.91
2019-04-20T08:24:55.311Z,44.42
2019-04-20T08:27:21.253Z,43.84
2019-04-20T08:30:26.786Z,45.24
2019-04-20T08:33:10.903Z,47.19
2019-04-20T08:35:47.715Z,45.87
2019-04-20T08:38:38.326Z,44.22
2019-04-20T08:40:43.730Z,44.68
2019-04-20T08:43:20.830Z,43.84
2019-04-20T08:45:49.494Z,44.34
2019-04-20T08:48:20.249Z,44.98
2019-04-20T08:50:45.001Z,43.06
2019-04-20T08:53:23.178Z,44.60
2019-04-20T08:55:38.939Z,40.39
2019-04-20T08:57:54.270Z,40.26
2019-04-20T09:00:29.307Z,42.24
2019-04-20T09:02:58.641Z,40.05
2019-04-20T09:05:34.848Z,40.55
2019-04-20T09:08:09.320Z,41.52
2019-04-20T09:10:48.204Z,37.66
2019-04-20T09:13:12.065Z,37.42
2019-04-20T09:15:29.937Z,38.94
2019-04-20T09:18:13.135Z,40.88
2019-04-20T09:20:45.825Z,37.76
2019-04-20T09:23:16.693Z,39.35
2019-04-20T09:26:01.826Z,37.70
2019-04-20T09:28:28.616Z,39.45
2019-04-20T09:31:18.042Z,36.73
2019-04-20T09:34:10.471Z,36.49
2019-04-20T09:36:32.528Z,34.51
2019-04-20T09:39:15.029Z,34.94
2019-04-20T09:42:01.208Z,34.21
2019-04-20T09:44:31.504Z,33.35
2019-04-20T09:47:01.338Z,34.45
2019-04-20T09:49:39.985Z,35.95
2019-04-20T09:52:13.341Z,35.66
2019-04-20T09:54:52.619Z,33.06
2019-04-20T09:57:19.152Z,33.82
2019-04-20T09:59:50.016Z,32.79
2019-04-20T10:02:08.750Z,33.33
2019-04-20T10:04:35.455Z,32.79
2019-04-20T10:07:11.180Z,33.10
2019-04-20T10:09:38.133Z,35.23
2019-04-20T10:12:03.875Z,30.65
2019-04-20T10:14:33.112Z,31.77
2019-04-20T10:17:02.127Z,31.29
2019-04-20T10:19:34.043Z,32.71
2019-04-20T10:22:00.503Z,29.70
2019-04-20T10:24:28.701Z,32.30
2019-04-20T10:26:56.916Z,30.14
2019-04-20T10:29:25.820Z,31.92
2019-04-20T10:31:57.150Z,31.19
2019-04-20T10:34:24.243Z,32.98
2019-04-20T10:36:55.438Z,30.97
2019-04-20T10:39:26.549Z,28.71
2019-04-20T10:41:58.773Z,29.99
2019-04-20T10:44:29.307Z,31.35
2019-04-20T10:46:59.257Z,30.05
2019-04-20T10:49:27.468Z,25.65
2019-04-20T10:51:55.842Z,25.23
2019-04-20T10:54:24.666Z,22.08
2019-04-20T10:56:52.963Z,21.18
2019-04-20T10:59:21.496Z,19.85
2019-04-20T11:01:49.809Z,19.65
2019-04-20T11:04:18.802Z,20.29
2019-04-20T11:06:47.072Z,17.88
2019-04-20T11:09:16.461Z,18.65
2019-04-20T11:11:46.017Z,20.06
2019-04-20T11:14:22.811Z,18.52
2019-04-20T11:16:44.551Z,18.61
2019-04-20T11:19:13.546Z,19.18
2019-04-20T11:21:41.849Z,19.00
2019-04-20T11:24:10.138Z,17.29
2019-04-20T11:26:40.527Z,15.49
2019-04-20T11:29:08.467Z,14.54
2019-04-20T11:31:42.224Z,17.40
2019-04-20T11:34:07.952Z,17.83
2019-04-20T11:36:37.062Z,18.12
2019-04-20T11:39:07.181Z,19.61
2019-04-20T11:41:37.303Z,18.69
2019-04-20T11:44:07.604Z,19.06
2019-04-20T11:46:38.896Z,16.78
2019-04-20T11:49:15.428Z,15.76
2019-04-20T11:51:45.463Z,16.31
2019-04-20T11:54:14.678Z,16.39
2019-04-20T11:56:45.774Z,17.49
2019-04-20T11:59:12.915Z,18.92
2019-04-20T12:01:54.912Z,18.25
2019-04-20T12:04:33.986Z,15.80
2019-04-20T12:06:54.842Z,16.59
2019-04-20T12:09:24.263Z,16.96
2019-04-20T12:12:04.240Z,15.09
2019-04-20T12:14:24.938Z,15.94
2019-04-20T12:16:53.427Z,17.49
2019-04-20T12:19:23.388Z,15.63
2019-04-20T12:21:51.744Z,16.44
2019-04-20T12:24:20.442Z,13.85
2019-04-20T12:26:48.967Z,15.50
2019-04-20T12:29:17.709Z,14.98
2019-04-20T12:31:51.190Z,15.09
2019-04-20T12:34:16.158Z,15.99
2019-04-20T12:36:44.879Z,16.24
2019-04-20T12:39:13.347Z,17.30
2019-04-20T12:41:49.808Z,16.14
2019-04-20T12:44:12.236Z,15.25
2019-04-20T12:46:41.512Z,15.59
2019-04-20T12:49:09.815Z,16.86
2019-04-20T12:51:47.801Z,16.01
2019-04-20T12:54:08.913Z,16.04
2019-04-20T12:56:38.343Z,16.20
2019-04-20T12:59:07.480Z,15.89
2019-04-20T13:01:35.743Z,17.51
2019-04-20T13:04:07.547Z,16.64
2019-04-20T13:06:37.296Z,15.39
2019-04-20T13:09:10.768Z,15.49
2019-04-20T13:11:59.056Z,13.95
2019-04-20T13:14:40.340Z,15.25
2019-04-20T13:17:08.539Z,14.99
2019-04-20T13:19:37.429Z,15.81
2019-04-20T13:22:07.226Z,19.00
2019-04-20T13:24:36.874Z,17.46
2019-04-20T13:27:05.132Z,15.44
2019-04-20T13:29:33.345Z,17.80
2019-04-20T13:32:02.141Z,17.81
2019-04-20T13:34:31.785Z,18.82
2019-04-20T13:37:00.250Z,18.81
2019-04-20T13:39:28.940Z,16.83
2019-04-20T13:42:09.654Z,17.21
2019-04-20T13:44:27.628Z,17.44
2019-04-20T13:46:56.762Z,16.39
2019-04-20T13:49:25.205Z,15.92
2019-04-20T13:51:54.880Z,14.98
2019-04-20T13:54:26.413Z,16.54
2019-04-20T13:56:55.704Z,15.18
2019-04-20T13:59:35.193Z,18.93
2019-04-20T14:02:06.758Z,18.27
2019-04-20T14:04:36.882Z,16.99
2019-04-20T14:07:05.747Z,14.60
2019-04-20T14:09:35.372Z,16.83
2019-04-20T14:12:13.992Z,16.08
2019-04-20T14:14:34.976Z,15.25
2019-04-20T14:17:03.359Z,16.85
2019-04-20T14:19:31.573Z,19.02
2019-04-20T14:21:59.870Z,16.44
2019-04-20T14:24:28.932Z,17.92
2019-04-20T14:26:57.221Z,16.47
2019-04-20T14:29:25.452Z,16.71
2019-04-20T14:31:53.647Z,14.36
2019-04-20T14:34:22.677Z,17.60
2019-04-20T14:36:50.979Z,16.75
2019-04-20T14:39:20.384Z,16.89
2019-04-20T14:41:48.705Z,16.67
2019-04-20T14:44:21.535Z,20.65
2019-04-20T14:46:49.816Z,16.59
2019-04-20T14:49:18.690Z,16.00
2019-04-20T14:51:47.760Z,17.89
2019-04-20T14:54:17.157Z,18.35
2019-04-20T14:56:45.490Z,15.42
2019-04-20T14:59:15.730Z,17.53
2019-04-20T15:01:48.200Z,17.14
2019-04-20T15:04:19.600Z,17.78
2019-04-20T15:06:46.616Z,16.10
2019-04-20T15:09:18.942Z,16.34
2019-04-20T15:11:48.242Z,17.05
2019-04-20T15:14:16.756Z,19.06
2019-04-20T15:16:44.991Z,17.18
2019-04-20T15:19:15.731Z,17.77
2019-04-20T15:21:45.570Z,16.20
2019-04-20T15:24:13.797Z,17.16
2019-04-20T15:26:42.585Z,18.48
2019-04-20T15:29:10.825Z,20.37
2019-04-20T15:31:39.124Z,17.32
2019-04-20T15:34:08.652Z,18.30
2019-04-20T15:36:38.169Z,17.38
2019-04-20T15:39:21.031Z,18.72
2019-04-20T15:41:49.602Z,18.66
2019-04-20T15:44:17.839Z,18.21
2019-04-20T15:46:46.056Z,20.53
2019-04-20T15:49:15.748Z,18.25
2019-04-20T15:51:44.159Z,22.50
2019-04-20T15:54:13.546Z,19.13
2019-04-20T15:56:49.726Z,19.46
2019-04-20T15:59:12.641Z,20.29
2019-04-20T16:01:43.438Z,18.75
2019-04-20T16:04:21.684Z,20.43
2019-04-20T16:06:43.391Z,20.38
2019-04-20T16:09:12.387Z,19.41
2019-04-20T16:11:41.237Z,16.78
2019-04-20T16:14:09.579Z,17.44
2019-04-20T16:16:37.799Z,19.63
2019-04-20T16:19:15.854Z,18.18
2019-04-20T16:21:37.528Z,19.04
2019-04-20T16:24:08.914Z,19.75
2019-04-20T16:26:39.908Z,19.35
2019-04-20T16:29:08.409Z,20.23
2019-04-20T16:31:36.617Z,19.96
2019-04-20T16:34:05.319Z,21.37
2019-04-20T16:36:34.626Z,20.70
2019-04-20T16:39:03.694Z,21.08
2019-04-20T16:41:32.644Z,21.54
2019-04-20T16:44:00.926Z,21.54
2019-04-20T16:46:30.128Z,22.02
2019-04-20T16:48:58.968Z,21.28
2019-04-20T16:51:27.344Z,22.37
2019-04-20T16:53:56.162Z,22.22
2019-04-20T16:56:24.585Z,22.38
2019-04-20T16:58:54.610Z,23.08
2019-04-20T17:01:23.499Z,22.71
2019-04-20T17:04:01.839Z,22.83
2019-04-20T17:06:22.304Z,24.63
2019-04-20T17:08:51.370Z,23.18
2019-04-20T17:11:19.656Z,23.73
2019-04-20T17:13:50.091Z,23.62
2019-04-20T17:16:17.810Z,23.80
2019-04-20T17:18:49.958Z,24.05
2019-04-20T17:21:22.991Z,24.59
2019-04-20T17:23:51.204Z,25.11
2019-04-20T17:26:21.139Z,25.23
2019-04-20T17:28:57.751Z,24.68
2019-04-20T17:31:31.552Z,25.21
2019-04-20T17:34:11.111Z,23.99
2019-04-20T17:36:33.110Z,26.15
2019-04-20T17:39:06.308Z,24.74
2019-04-20T17:41:50.710Z,25.97
2019-04-20T17:44:18.025Z,26.97
2019-04-20T17:46:43.622Z,25.59
2019-04-20T17:49:14.162Z,25.66
2019-04-20T17:51:53.471Z,27.31
2019-04-20T17:54:06.866Z,25.89
2019-04-20T17:56:34.356Z,25.91
2019-04-20T17:59:03.990Z,26.58
2019-04-20T18:02:05.350Z,26.31
2019-04-20T18:04:55.170Z,26.36
2019-04-20T18:07:04.354Z,26.87
2019-04-20T18:09:46.163Z,26.05
2019-04-20T18:11:58.547Z,28.01
2019-04-20T18:14:37.408Z,27.19
2019-04-20T18:17:18.041Z,27.13
2019-04-20T18:19:38.814Z,27.62
2019-04-20T18:22:25.769Z,27.65
2019-04-20T18:25:12.405Z,27.19
2019-04-20T18:27:43.427Z,27.33
2019-04-20T18:30:10.730Z,28.01
2019-04-20T18:32:31.503Z,27.00
2019-04-20T18:35:06.968Z,28.16
2019-04-20T18:37:34.533Z,27.82
2019-04-20T18:40:10.686Z,28.68
2019-04-20T18:42:43.776Z,27.74
2019-04-20T18:45:26.724Z,27.54
2019-04-20T18:48:04.443Z,27.53
2019-04-20T18:50:18.418Z,28.03
2019-04-20T18:52:40.306Z,27.89
2019-04-20T18:55:17.339Z,28.19
2019-04-20T18:57:39.769Z,28.84
2019-04-20T19:00:17.984Z,28.97
2019-04-20T19:02:42.959Z,31.13
2019-04-20T19:05:08.618Z,32.92
2019-04-20T19:07:41.556Z,34.45
2019-04-20T19:10:14.750Z,32.42
2019-04-20T19:12:47.779Z,35.23
2019-04-20T19:15:43.942Z,33.68
2019-04-20T19:18:11.539Z,33.65
2019-04-20T19:20:32.922Z,34.15
2019-04-20T19:23:06.141Z,35.62
2019-04-20T19:25:37.460Z,34.54
2019-04-20T19:28:05.537Z,32.48
2019-04-20T19:30:44.101Z,36.73
2019-04-20T19:33:23.056Z,35.75
2019-04-20T19:35:48.123Z,34.29
2019-04-20T19:38:12.573Z,33.15
2019-04-20T19:40:47.944Z,33.06
2019-04-20T19:43:15.573Z,32.98
2019-04-20T19:45:56.234Z,32.29
2019-04-20T19:48:17.435Z,32.35
2019-04-20T19:51:03.552Z,35.33
2019-04-20T19:53:28.336Z,34.46
2019-04-20T19:55:47.845Z,32.97
2019-04-20T19:58:17.506Z,32.41
2019-04-20T20:00:57.730Z,32.53
2019-04-20T20:03:25.645Z,34.95
2019-04-20T20:05:55.858Z,33.96
2019-04-20T20:08:29.044Z,35.54
2019-04-20T20:10:55.496Z,33.56
2019-04-20T20:13:33.242Z,33.49
2019-04-20T20:16:02.427Z,35.59
2019-04-20T20:18:40.690Z,35.21
2019-04-20T20:21:15.193Z,32.97
2019-04-20T20:23:32.134Z,33.80
2019-04-20T20:26:02.405Z,33.03
2019-04-20T20:28:41.649Z,33.85
2019-04-20T20:31:12.824Z,33.92
2019-04-20T20:33:45.435Z,31.96
2019-04-20T20:36:11.313Z,32.21
2019-04-20T20:38:37.687Z,32.11
2019-04-20T20:41:10.311Z,31.84
2019-04-20T20:43:44.685Z,32.01
2019-04-20T20:46:15.314Z,31.53
2019-04-20T20:48:54.342Z,32.07
2019-04-20T20:51:14.966Z,32.31
2019-04-20T20:53:43.150Z,31.74
2019-04-20T20:56:10.741Z,33.22
2019-04-20T20:58:45.166Z,31.78
2019-04-20T21:01:10.073Z,32.09
2019-04-20T21:03:38.425Z,31.83
2019-04-20T21:06:00.825Z,32.29
2019-04-20T21:08:29.310Z,32.52
2019-04-20T21:10:57.620Z,32.20
2019-04-20T21:13:33.275Z,32.79
2019-04-20T21:16:03.063Z,32.53
2019-04-20T21:18:44.906Z,33.88
2019-04-20T21:21:13.019Z,32.97
2019-04-20T21:23:40.765Z,33.49
2019-04-20T21:26:12.835Z,33.34
2019-04-20T21:28:43.968Z,32.51
2019-04-20T21:31:18.142Z,33.90
2019-04-20T21:33:42.873Z,33.25
2019-04-20T21:36:16.597Z,33.96
2019-04-20T21:38:44.637Z,32.47
2019-04-20T21:41:16.203Z,32.35
2019-04-20T21:43:44.585Z,33.37
2019-04-20T21:46:14.024Z,33.23
2019-04-20T21:48:56.734Z,32.63
2019-04-20T21:51:29.357Z,33.36
2019-04-20T21:53:44.282Z,32.48
2019-04-20T21:56:12.801Z,34.46
2019-04-20T21:58:49.221Z,34.02
2019-04-20T22:01:23.980Z,33.69
2019-04-20T22:03:42.527Z,33.61
2019-04-20T22:06:11.079Z,33.40
2019-04-20T22:08:44.540Z,33.58
2019-04-20T22:11:09.222Z,32.77
2019-04-20T22:13:40.148Z,33.68
2019-04-20T22:16:11.005Z,32.72
2019-04-20T22:18:48.201Z,33.38
2019-04-20T22:21:18.777Z,33.79
2019-04-20T22:23:54.958Z,32.79
2019-04-20T22:26:18.707Z,33.47
2019-04-20T22:28:38.257Z,33.65
2019-04-20T22:31:06.525Z,34.29
2019-04-20T22:33:40.012Z,33.18
2019-04-20T22:36:09.435Z,33.18
2019-04-20T22:38:46.524Z,33.41
2019-04-20T22:41:13.887Z,33.14
2019-04-20T22:43:40.258Z,33.45
2019-04-20T22:46:07.740Z,33.98
2019-04-20T22:48:39.307Z,33.73
2019-04-20T22:51:19.677Z,34.43
2019-04-20T22:53:48.578Z,34.09
2019-04-20T22:56:24.331Z,33.35
2019-04-20T22:58:49.999Z,34.37
2019-04-20T23:01:17.418Z,33.39
2019-04-20T23:03:36.742Z,33.45
2019-04-20T23:06:05.098Z,33.55
2019-04-20T23:08:33.314Z,34.22
2019-04-20T23:11:04.486Z,34.19
2019-04-20T23:13:36.711Z,34.09
2019-04-20T23:16:02.643Z,34.08
2019-04-20T23:18:31.943Z,35.57
2019-04-20T23:21:03.706Z,34.49
2019-04-20T23:23:30.985Z,34.18
2019-04-20T23:26:01.071Z,34.33
2019-04-20T23:28:29.459Z,35.35
2019-04-20T23:31:03.855Z,35.17
2019-04-20T23:33:27.734Z,34.72
2019-04-20T23:35:58.240Z,34.60
2019-04-20T23:38:26.437Z,34.22
2019-04-20T23:40:55.601Z,34.66
2019-04-20T23:43:39.287Z,35.30
2019-04-20T23:46:24.641Z,34.77
2019-04-20T23:49:18.430Z,34.55
2019-04-20T23:51:59.027Z,34.82
2019-04-20T23:54:15.809Z,35.43
2019-04-20T23:56:37.624Z,35.22
2019-04-20T23:59:06.459Z,35.93
